Time;durP1;ratioP1;P1;durP2;ratioP2;P2;SDS_P1;SDS_P2;PMS_P1;PMS_P2;Temp;Humidity;BMP_temperature;BMP_pressure;BME280_temperature;BME280_humidity;BME280_pressure;Samples;Min_cycle;Max_cycle;Signal;HPM_P1;HPM_P2
2023/07/15 00:01:31;;;;;;;3.90;2.63;;;18.00;99.90;;;;;;4998036;28;20030;-58
2023/07/15 00:03:57;;;;;;;5.97;3.90;;;17.90;99.90;;;;;;4995124;28;20585;-57
2023/07/15 00:06:24;;;;;;;3.20;2.75;;;17.90;99.90;;;;;;4996045;28;20041;-58
2023/07/15 00:08:51;;;;;;;8.75;3.53;;;17.90;99.90;;;;;;4996422;28;20053;-56
2023/07/15 00:11:33;;;;;;;5.10;3.35;;;17.90;99.90;;;;;;4997213;28;20030;-57
2023/07/15 00:13:59;;;;;;;;;;;17.80;99.90;;;;;;4995358;28;20042;-58
2023/07/15 00:16:26;;;;;;;3.85;3.10;;;17.80;99.90;;;;;;4994933;28;20637;-58
2023/07/15 00:18:52;;;;;;;5.32;3.83;;;17.70;99.90;;;;;;4995366;28;20096;-58
2023/07/15 00:21:26;;;;;;;5.60;3.33;;;17.70;99.90;;;;;;4994747;28;20034;-54
2023/07/15 00:23:57;;;;;;;13.52;3.30;;;17.60;99.90;;;;;;4998241;28;20126;-58
2023/07/15 00:26:25;;;;;;;7.07;3.47;;;17.60;99.90;;;;;;4998020;28;20430;-56
2023/07/15 00:28:50;;;;;;;4.18;3.33;;;17.50;99.90;;;;;;4996953;28;20023;-57
2023/07/15 00:31:17;;;;;;;5.60;3.40;;;17.50;99.90;;;;;;4997055;28;20129;-57
2023/07/15 00:33:44;;;;;;;4.25;3.75;;;17.40;99.90;;;;;;4995414;28;20030;-56
2023/07/15 00:36:12;;;;;;;4.28;3.35;;;17.40;99.90;;;;;;4996320;28;20088;-57
2023/07/15 00:38:38;;;;;;;4.95;3.10;;;17.30;99.90;;;;;;4993905;28;20065;-58
2023/07/15 00:41:30;;;;;;;3.38;2.97;;;17.30;99.90;;;;;;4996722;28;20093;-57
2023/07/15 00:43:56;;;;;;;5.22;3.10;;;17.20;99.90;;;;;;4995254;28;20034;-58
2023/07/15 00:46:22;;;;;;;5.38;2.97;;;17.10;99.90;;;;;;4991374;28;20026;-58
2023/07/15 00:49:02;;;;;;;6.35;3.35;;;17.10;99.90;;;;;;4995746;28;20049;-57
2023/07/15 00:51:33;;;;;;;3.45;2.85;;;17.00;99.90;;;;;;4997098;28;20038;-58
2023/07/15 00:53:59;;;;;;;7.40;3.47;;;17.00;99.90;;;;;;4997449;28;20497;-57
2023/07/15 00:56:27;;;;;;;4.18;3.63;;;16.90;99.90;;;;;;4994824;28;20064;-57
2023/07/15 00:58:53;;;;;;;3.22;2.92;;;16.90;99.90;;;;;;4996956;28;20031;-58
2023/07/15 01:01:20;;;;;;;8.18;3.10;;;16.80;99.90;;;;;;4993995;28;20034;-58
2023/07/15 01:03:45;;;;;;;3.83;3.25;;;16.80;99.90;;;;;;4999106;28;20081;-58
2023/07/15 01:06:12;;;;;;;3.72;2.78;;;16.80;99.90;;;;;;4997115;28;20475;-56
2023/07/15 01:08:38;;;;;;;3.60;3.28;;;16.80;99.90;;;;;;4997027;28;20084;-56
2023/07/15 01:11:06;;;;;;;4.38;3.97;;;16.80;99.90;;;;;;4996376;28;20030;-57
2023/07/15 01:13:32;;;;;;;3.83;3.42;;;16.80;99.90;;;;;;4996113;28;20039;-57
2023/07/15 01:15:58;;;;;;;5.22;3.90;;;16.80;99.90;;;;;;4996072;28;20414;-57
2023/07/15 01:18:23;;;;;;;4.53;3.72;;;16.70;99.90;;;;;;4990123;28;20034;-57
2023/07/15 01:20:50;;;;;;;4.60;3.58;;;16.70;99.90;;;;;;4993118;28;20145;-58
2023/07/15 01:23:16;;;;;;;4.10;3.72;;;16.70;99.90;;;;;;4995676;28;20121;-57
2023/07/15 01:25:42;;;;;;;4.00;3.50;;;16.60;99.90;;;;;;4997306;28;20468;-57
2023/07/15 01:28:08;;;;;;;4.20;3.75;;;16.70;99.90;;;;;;4998369;28;20110;-57
2023/07/15 01:30:34;;;;;;;7.60;3.50;;;16.70;99.90;;;;;;4995466;28;20502;-57
2023/07/15 01:33:00;;;;;;;5.60;3.80;;;16.70;99.90;;;;;;4997032;28;20501;-55
2023/07/15 01:35:26;;;;;;;4.35;3.00;;;16.80;99.90;;;;;;5002546;28;20030;-57
2023/07/15 01:37:52;;;;;;;4.05;3.33;;;16.80;99.90;;;;;;4998155;28;20084;-57
2023/07/15 01:40:18;;;;;;;3.35;2.80;;;16.90;99.90;;;;;;4999343;28;20042;-58
2023/07/15 01:42:44;;;;;;;4.03;3.28;;;16.90;99.90;;;;;;4992705;28;20445;-57
2023/07/15 01:45:10;;;;;;;11.73;3.78;;;16.90;99.90;;;;;;4993728;28;20129;-55
2023/07/15 01:47:36;;;;;;;3.35;3.05;;;16.90;99.90;;;;;;5003658;28;20026;-58
2023/07/15 01:50:02;;;;;;;4.25;3.40;;;16.90;99.90;;;;;;5000388;28;20049;-56
2023/07/15 01:52:27;;;;;;;5.00;3.47;;;16.90;99.90;;;;;;4995604;28;20041;-58
2023/07/15 01:54:53;;;;;;;4.03;3.15;;;16.90;99.90;;;;;;4999940;28;20553;-57
2023/07/15 01:57:20;;;;;;;5.05;3.20;;;16.90;99.90;;;;;;4997112;28;20137;-58
2023/07/15 01:59:45;;;;;;;4.45;3.42;;;16.80;99.90;;;;;;4997200;28;20112;-57
2023/07/15 02:02:11;;;;;;;4.82;3.45;;;16.80;99.90;;;;;;4996658;28;20567;-58
2023/07/15 02:04:37;;;;;;;4.78;3.55;;;16.80;99.90;;;;;;5000364;28;20019;-57
2023/07/15 02:07:02;;;;;;;8.95;3.55;;;16.80;99.90;;;;;;4996878;28;20508;-57
2023/07/15 02:09:28;;;;;;;5.18;3.30;;;16.80;99.90;;;;;;4999114;28;20021;-57
2023/07/15 02:11:54;;;;;;;4.47;3.25;;;16.80;99.90;;;;;;4997033;28;20030;-57
2023/07/15 02:14:21;;;;;;;3.67;3.38;;;16.70;99.90;;;;;;4998319;28;20049;-58
2023/07/15 02:16:46;;;;;;;4.25;3.85;;;16.70;99.90;;;;;;4998607;28;20029;-58
2023/07/15 02:19:12;;;;;;;6.20;3.63;;;16.70;99.90;;;;;;4997303;28;20069;-58
2023/07/15 02:21:38;;;;;;;3.88;3.10;;;16.70;99.90;;;;;;4999574;28;20038;-57
2023/07/15 02:24:04;;;;;;;4.43;3.20;;;16.70;99.90;;;;;;5000492;28;20105;-58
2023/07/15 02:26:29;;;;;;;4.32;3.35;;;16.70;99.90;;;;;;4996821;28;20022;-57
2023/07/15 02:28:55;;;;;;;4.05;3.35;;;16.70;99.90;;;;;;4999085;28;20006;-58
2023/07/15 02:31:21;;;;;;;7.68;3.03;;;16.60;99.90;;;;;;4995989;28;20029;-58
2023/07/15 02:33:46;;;;;;;9.32;3.78;;;16.70;99.90;;;;;;4999892;28;20033;-57
2023/07/15 02:36:13;;;;;;;5.63;3.40;;;16.80;99.90;;;;;;4998664;28;20026;-57
2023/07/15 02:38:40;;;;;;;4.65;3.55;;;16.80;99.90;;;;;;4997310;28;20173;-56
2023/07/15 02:41:06;;;;;;;3.83;3.40;;;16.80;99.90;;;;;;4999090;28;20027;-57
2023/07/15 02:43:31;;;;;;;4.72;3.53;;;16.80;99.90;;;;;;4999231;28;20525;-56
2023/07/15 02:45:57;;;;;;;10.23;3.25;;;16.70;99.90;;;;;;4997285;28;20096;-57
2023/07/15 02:48:24;;;;;;;3.83;3.20;;;16.80;99.90;;;;;;4996418;28;20399;-57
2023/07/15 02:50:53;;;;;;;4.18;3.33;;;16.70;99.90;;;;;;4996817;28;20495;-56
2023/07/15 02:53:19;;;;;;;5.15;3.25;;;16.60;99.90;;;;;;4998159;28;20038;-58
2023/07/15 02:55:45;;;;;;;4.13;2.70;;;16.60;99.90;;;;;;4996627;28;20017;-57
2023/07/15 02:58:14;;;;;;;4.35;3.38;;;16.60;99.90;;;;;;4998474;28;20068;-55
2023/07/15 03:00:43;;;;;;;6.72;3.10;;;16.60;99.90;;;;;;4999538;28;20030;-57
2023/07/15 03:03:12;;;;;;;8.50;3.67;;;16.50;99.90;;;;;;4996423;28;20121;-56
2023/07/15 03:05:37;;;;;;;4.13;3.08;;;16.50;99.90;;;;;;5000124;28;20449;-58
2023/07/15 03:08:03;;;;;;;4.30;3.45;;;16.50;99.90;;;;;;4996914;28;20034;-56
2023/07/15 03:10:29;;;;;;;3.85;3.38;;;16.40;99.90;;;;;;4999161;28;20053;-57
2023/07/15 03:12:55;;;;;;;4.80;3.22;;;16.40;99.90;;;;;;4995441;28;20064;-57
2023/07/15 03:15:20;;;;;;;3.83;3.40;;;16.40;99.90;;;;;;4995517;28;20038;-58
2023/07/15 03:17:46;;;;;;;4.72;3.40;;;16.40;99.90;;;;;;4997219;28;20121;-57
2023/07/15 03:20:19;;;;;;;6.65;3.78;;;16.50;99.90;;;;;;4998500;28;20029;-58
2023/07/15 03:22:47;;;;;;;3.80;3.50;;;16.40;99.90;;;;;;4997862;28;20053;-57
2023/07/15 03:25:14;;;;;;;3.97;3.42;;;16.40;99.90;;;;;;4997114;28;20495;-57
2023/07/15 03:27:40;;;;;;;6.55;3.58;;;16.40;99.90;;;;;;4997066;28;20120;-55
2023/07/15 03:30:10;;;;;;;5.70;3.40;;;16.40;99.90;;;;;;4999047;28;20033;-57
2023/07/15 03:32:37;;;;;;;5.38;3.42;;;16.40;99.90;;;;;;4996531;28;20068;-57
2023/07/15 03:35:04;;;;;;;6.03;4.15;;;16.40;99.90;;;;;;4997696;28;20033;-57
2023/07/15 03:37:33;;;;;;;5.43;3.70;;;16.40;99.90;;;;;;4998574;28;20038;-57
2023/07/15 03:39:59;;;;;;;4.28;3.60;;;16.40;99.90;;;;;;4997313;28;20081;-55
2023/07/15 03:42:27;;;;;;;3.50;3.20;;;16.40;99.90;;;;;;4996464;28;20042;-56
2023/07/15 03:44:53;;;;;;;14.80;4.15;;;16.40;99.90;;;;;;4996632;28;20034;-57
2023/07/15 03:47:19;;;;;;;3.55;3.25;;;16.40;99.90;;;;;;4999321;28;20097;-58
2023/07/15 03:49:45;;;;;;;3.92;3.17;;;16.40;99.90;;;;;;4995031;28;20019;-57
2023/07/15 03:52:11;;;;;;;4.22;2.97;;;16.40;99.90;;;;;;4997329;28;20565;-56
2023/07/15 03:54:37;;;;;;;3.47;3.17;;;16.50;99.90;;;;;;4996134;28;20100;-57
2023/07/15 03:57:03;;;;;;;3.88;3.42;;;16.50;99.90;;;;;;4995304;28;20171;-57
2023/07/15 03:59:29;;;;;;;3.03;2.83;;;16.50;99.90;;;;;;4994453;28;20019;-57
2023/07/15 04:01:54;;;;;;;3.50;3.20;;;16.60;99.90;;;;;;4996370;28;20398;-56
2023/07/15 04:04:21;;;;;;;5.63;3.15;;;16.60;99.90;;;;;;4996071;28;20034;-56
2023/07/15 04:06:47;;;;;;;3.22;2.92;;;16.60;99.90;;;;;;4995025;28;20092;-54
2023/07/15 04:09:12;;;;;;;4.30;3.90;;;16.60;99.90;;;;;;4996324;28;20026;-56
2023/07/15 04:11:41;;;;;;;3.70;3.35;;;16.60;99.90;;;;;;4993937;28;20086;-58
2023/07/15 04:14:07;;;;;;;3.45;3.15;;;16.60;99.90;;;;;;4994573;28;20014;-56
2023/07/15 04:16:33;;;;;;;3.70;3.40;;;16.70;99.90;;;;;;4992267;28;20034;-57
2023/07/15 04:18:58;;;;;;;4.25;3.38;;;16.70;99.90;;;;;;4997225;28;20577;-57
2023/07/15 04:21:24;;;;;;;3.05;2.85;;;16.70;99.90;;;;;;4995786;28;20423;-57
2023/07/15 04:23:52;;;;;;;3.40;2.55;;;16.70;99.90;;;;;;4998195;28;20132;-56
2023/07/15 04:26:24;;;;;;;3.38;3.08;;;16.70;99.90;;;;;;4998654;28;20038;-58
2023/07/15 04:28:51;;;;;;;3.30;2.83;;;16.80;99.90;;;;;;4994225;28;20039;-57
2023/07/15 04:31:17;;;;;;;5.05;3.55;;;16.80;99.90;;;;;;4997317;28;20038;-57
2023/07/15 04:33:46;;;;;;;3.67;3.38;;;16.90;99.90;;;;;;4998183;28;20053;-57
2023/07/15 04:36:13;;;;;;;3.83;2.95;;;16.90;99.90;;;;;;4993026;28;20026;-57
2023/07/15 04:38:39;;;;;;;3.90;2.67;;;16.90;99.90;;;;;;5000904;28;20038;-56
2023/07/15 04:41:04;;;;;;;5.07;3.05;;;16.90;99.90;;;;;;4998122;28;20026;-54
2023/07/15 04:43:31;;;;;;;3.35;2.85;;;17.00;99.90;;;;;;4994251;28;20573;-57
2023/07/15 04:45:57;;;;;;;3.45;3.10;;;17.00;99.90;;;;;;4996683;28;20057;-56
2023/07/15 04:48:23;;;;;;;4.10;2.83;;;17.00;99.90;;;;;;4996072;28;20549;-57
2023/07/15 04:50:52;;;;;;;3.30;2.60;;;17.00;99.90;;;;;;4997532;28;20058;-56
2023/07/15 04:53:18;;;;;;;5.50;3.53;;;17.00;99.90;;;;;;4998066;28;20081;-57
2023/07/15 04:55:46;;;;;;;8.48;3.50;;;17.10;99.90;;;;;;4995273;28;20425;-57
2023/07/15 04:58:14;;;;;;;2.90;2.67;;;17.20;99.90;;;;;;4996513;28;20030;-57
2023/07/15 05:00:39;;;;;;;3.85;3.20;;;17.20;99.90;;;;;;4991940;28;20030;-58
2023/07/15 05:03:06;;;;;;;3.90;3.50;;;17.30;99.90;;;;;;4995887;28;20100;-57
2023/07/15 05:05:32;;;;;;;3.65;3.28;;;17.40;99.90;;;;;;4997220;28;20590;-56
2023/07/15 05:08:22;;;;;;;3.80;3.15;;;17.40;99.90;;;;;;4993368;28;20367;-56
2023/07/15 05:10:54;;;;;;;4.15;2.90;;;17.50;99.90;;;;;;4996133;28;20076;-58
2023/07/15 05:13:20;;;;;;;4.47;3.00;;;17.50;99.90;;;;;;4993958;28;20082;-56
2023/07/15 05:15:45;;;;;;;3.53;3.22;;;17.60;99.90;;;;;;4995435;28;20022;-56
2023/07/15 05:18:11;;;;;;;3.53;3.22;;;17.70;99.90;;;;;;4994306;28;20031;-57
2023/07/15 05:20:37;;;;;;;3.13;2.92;;;17.80;99.90;;;;;;4996022;28;20042;-57
2023/07/15 05:23:04;;;;;;;7.05;3.55;;;17.80;99.90;;;;;;4995013;28;20035;-58
2023/07/15 05:25:31;;;;;;;3.25;2.95;;;18.00;99.90;;;;;;4997287;28;20023;-56
2023/07/15 05:27:57;;;;;;;4.18;3.83;;;18.10;99.90;;;;;;5000098;28;20026;-57
2023/07/15 05:30:24;;;;;;;4.05;3.50;;;18.10;99.90;;;;;;4998912;28;20390;-57
2023/07/15 05:32:50;;;;;;;4.28;3.30;;;18.20;99.90;;;;;;5001598;28;20441;-58
2023/07/15 05:35:16;;;;;;;4.65;3.50;;;18.30;99.90;;;;;;4999816;28;20010;-58
2023/07/15 05:37:41;;;;;;;4.50;3.70;;;18.40;99.90;;;;;;4998529;28;20615;-59
2023/07/15 05:40:11;;;;;;;3.38;3.08;;;18.50;99.90;;;;;;4997381;28;20497;-58
2023/07/15 05:42:41;;;;;;;3.80;3.42;;;18.70;99.90;;;;;;4999615;28;20084;-58
2023/07/15 05:45:08;;;;;;;2.75;2.55;;;18.70;99.90;;;;;;4998059;28;20027;-58
2023/07/15 05:47:34;;;;;;;3.38;3.08;;;18.80;99.90;;;;;;5001218;28;20517;-58
2023/07/15 05:50:00;;;;;;;4.00;2.88;;;18.90;99.90;;;;;;5002364;28;20934;-57
2023/07/15 05:52:26;;;;;;;3.30;2.63;;;19.10;99.90;;;;;;5000536;28;20034;-58
2023/07/15 05:54:51;;;;;;;3.45;2.85;;;19.20;99.90;;;;;;5000198;28;20052;-59
2023/07/15 05:57:17;;;;;;;5.05;2.75;;;19.40;99.90;;;;;;4999796;28;20112;-58
2023/07/15 05:59:42;;;;;;;2.50;2.30;;;19.60;99.90;;;;;;4999802;28;20068;-58
2023/07/15 06:02:08;;;;;;;3.80;2.90;;;19.70;99.90;;;;;;4999573;28;20034;-58
2023/07/15 06:04:34;;;;;;;3.63;2.47;;;19.80;99.90;;;;;;5000126;28;20019;-58
2023/07/15 06:06:59;;;;;;;4.90;2.42;;;20.00;99.90;;;;;;4999155;28;20457;-57
2023/07/15 06:09:25;;;;;;;6.93;2.92;;;20.10;99.90;;;;;;4998588;28;20030;-58
2023/07/15 06:11:50;;;;;;;3.15;2.45;;;20.40;99.90;;;;;;5000738;28;20041;-58
2023/07/15 06:14:16;;;;;;;4.93;2.58;;;20.60;99.90;;;;;;4999026;28;20045;-58
2023/07/15 06:16:41;;;;;;;4.43;2.47;;;20.80;99.90;;;;;;4995085;28;20066;-57
2023/07/15 06:19:07;;;;;;;2.45;2.25;;;21.00;99.90;;;;;;4999757;28;20049;-59
2023/07/15 06:21:35;;;;;;;3.33;2.10;;;21.20;99.90;;;;;;4996879;28;20033;-56
2023/07/15 06:24:00;;;;;;;3.95;2.40;;;21.30;99.90;;;;;;4998611;28;20341;-58
2023/07/15 06:26:26;;;;;;;2.47;2.05;;;21.50;99.90;;;;;;4996861;28;20025;-58
2023/07/15 06:28:51;;;;;;;5.75;2.10;;;21.60;99.90;;;;;;4997394;28;20011;-58
2023/07/15 06:31:17;;;;;;;2.53;2.33;;;21.70;99.90;;;;;;4996689;28;20026;-59
2023/07/15 06:33:44;;;;;;;2.80;2.53;;;21.80;99.90;;;;;;4996599;28;20038;-57
2023/07/15 06:36:10;;;;;;;3.38;2.58;;;21.90;99.90;;;;;;5000894;28;20025;-58
2023/07/15 06:38:36;;;;;;;2.15;1.95;;;22.10;99.90;;;;;;4995321;28;20021;-58
2023/07/15 06:41:02;;;;;;;3.70;2.35;;;22.20;99.90;;;;;;4998654;28;20025;-57
2023/07/15 06:43:27;;;;;;;3.53;2.53;;;22.40;99.90;;;;;;4997508;28;20033;-57
2023/07/15 06:45:53;;;;;;;4.47;2.80;;;22.50;99.90;;;;;;4997785;28;20038;-58
2023/07/15 06:48:19;;;;;;;2.65;2.25;;;22.60;99.90;;;;;;4998300;28;20030;-57
2023/07/15 06:50:45;;;;;;;2.47;2.28;;;22.80;99.90;;;;;;4997583;28;20041;-58
2023/07/15 06:53:10;;;;;;;5.68;2.30;;;22.90;99.30;;;;;;4995288;28;20170;-58
2023/07/15 06:55:36;;;;;;;5.13;2.72;;;23.10;99.90;;;;;;4997300;28;20037;-57
2023/07/15 06:58:02;;;;;;;3.63;2.15;;;23.20;98.50;;;;;;4995818;28;20026;-57
2023/07/15 07:00:29;;;;;;;4.60;2.40;;;23.40;97.10;;;;;;4998971;28;20065;-56
2023/07/15 07:02:54;;;;;;;2.67;2.38;;;23.50;97.50;;;;;;5002461;28;20499;-57
2023/07/15 07:05:20;;;;;;;3.05;2.10;;;23.60;97.80;;;;;;4997587;28;20041;-57
2023/07/15 07:07:47;;;;;;;4.18;2.85;;;23.70;97.20;;;;;;4996488;28;20551;-58
2023/07/15 07:10:12;;;;;;;3.03;2.47;;;23.80;95.70;;;;;;4996930;28;20510;-58
2023/07/15 07:12:38;;;;;;;2.78;2.58;;;23.90;98.20;;;;;;4997091;28;20064;-58
2023/07/15 07:15:05;;;;;;;3.83;2.50;;;24.00;98.60;;;;;;4999977;28;20054;-58
2023/07/15 07:17:30;;;;;;;3.03;2.15;;;24.10;95.60;;;;;;4995887;28;20029;-57
2023/07/15 07:19:56;;;;;;;2.58;2.22;;;24.30;94.30;;;;;;4997497;28;20041;-56
2023/07/15 07:22:22;;;;;;;4.13;2.20;;;24.40;94.30;;;;;;4998668;28;20034;-57
2023/07/15 07:24:49;;;;;;;3.35;2.30;;;24.50;92.10;;;;;;5000807;28;20022;-57
2023/07/15 07:27:14;;;;;;;4.43;2.15;;;24.50;93.20;;;;;;4994801;28;20050;-58
2023/07/15 07:29:40;;;;;;;2.97;2.38;;;24.70;93.20;;;;;;4993276;28;20058;-58
2023/07/15 07:32:06;;;;;;;3.78;2.30;;;24.80;93.30;;;;;;4998162;28;20031;-57
2023/07/15 07:34:33;;;;;;;4.28;2.33;;;24.80;94.10;;;;;;4998932;28;20252;-57
2023/07/15 07:36:59;;;;;;;4.72;2.15;;;25.00;93.00;;;;;;4995496;28;20065;-56
2023/07/15 07:39:25;;;;;;;2.38;2.10;;;25.10;92.00;;;;;;4996519;28;20026;-58
2023/07/15 07:41:51;;;;;;;4.45;2.28;;;25.30;91.50;;;;;;4998272;28;20085;-57
2023/07/15 07:44:16;;;;;;;3.28;2.13;;;25.50;91.10;;;;;;4997222;28;20067;-58
2023/07/15 07:46:42;;;;;;;2.33;2.10;;;25.60;90.70;;;;;;4998027;28;20057;-55
2023/07/15 07:49:07;;;;;;;3.45;2.35;;;25.80;90.40;;;;;;4995126;28;20121;-57
2023/07/15 07:51:33;;;;;;;3.28;2.17;;;25.90;90.60;;;;;;5000329;28;20037;-58
2023/07/15 07:53:59;;;;;;;11.55;2.70;;;26.10;88.00;;;;;;4997713;28;20030;-57
2023/07/15 07:56:25;;;;;;;5.25;2.70;;;26.20;85.30;;;;;;4996463;28;20056;-59
2023/07/15 07:58:58;;;;;;;2.53;1.90;;;26.30;84.50;;;;;;4998249;28;20026;-57
2023/07/15 08:01:24;;;;;;;3.90;2.30;;;26.30;83.80;;;;;;4995653;28;20046;-57
2023/07/15 08:03:50;;;;;;;3.50;2.20;;;26.40;82.70;;;;;;4998736;28;20037;-57
2023/07/15 08:06:16;;;;;;;3.42;2.53;;;26.60;85.50;;;;;;4996053;28;20038;-59
2023/07/15 08:08:42;;;;;;;3.08;2.20;;;26.70;82.90;;;;;;4997679;28;20557;-58
2023/07/15 08:11:07;;;;;;;2.42;1.70;;;26.90;79.90;;;;;;4996105;28;20027;-57
2023/07/15 08:13:33;;;;;;;2.58;2.05;;;27.00;80.60;;;;;;4997128;28;20042;-57
2023/07/15 08:15:59;;;;;;;4.35;2.00;;;27.20;80.50;;;;;;4997621;28;20425;-58
2023/07/15 08:18:25;;;;;;;2.50;2.30;;;27.40;79.70;;;;;;4996359;28;20495;-58
2023/07/15 08:20:51;;;;;;;4.15;1.80;;;27.50;78.50;;;;;;4998837;28;20030;-58
2023/07/15 08:23:17;;;;;;;2.40;2.20;;;27.80;81.00;;;;;;4997398;28;20047;-58
2023/07/15 08:25:43;;;;;;;1.98;1.88;;;28.00;75.20;;;;;;4997182;28;20023;-57
2023/07/15 08:28:08;;;;;;;2.13;1.92;;;28.30;74.30;;;;;;4992883;28;20105;-58
2023/07/15 08:30:36;;;;;;;6.20;1.95;;;28.50;74.90;;;;;;4992668;28;20516;-58
2023/07/15 08:33:03;;;;;;;2.72;2.00;;;28.60;74.10;;;;;;4996908;28;20034;-57
2023/07/15 08:35:29;;;;;;;3.00;2.13;;;28.60;74.10;;;;;;4995445;28;20034;-59
2023/07/15 08:37:55;;;;;;;4.68;2.13;;;28.70;72.30;;;;;;4997830;28;20024;-57
2023/07/15 08:40:24;;;;;;;5.22;2.08;;;28.80;71.50;;;;;;4992771;28;20034;-57
2023/07/15 08:42:49;;;;;;;5.25;2.55;;;29.00;70.20;;;;;;4995576;28;20044;-58
2023/07/15 08:45:16;;;;;;;2.85;1.90;;;29.10;69.60;;;;;;4994666;28;20023;-58
2023/07/15 08:47:44;;;;;;;1.83;1.60;;;29.10;71.70;;;;;;4992399;28;20105;-58
2023/07/15 08:50:12;;;;;;;1.90;1.80;;;29.20;69.70;;;;;;4994864;28;20081;-57
2023/07/15 08:52:38;;;;;;;2.80;2.20;;;29.30;68.80;;;;;;4997948;28;20884;-58
2023/07/15 08:55:05;;;;;;;1.60;1.50;;;29.50;68.00;;;;;;4996911;28;20030;-58
2023/07/15 08:57:32;;;;;;;2.25;1.50;;;29.70;68.70;;;;;;4996334;28;20046;-58
2023/07/15 08:59:58;;;;;;;2.00;1.30;;;29.80;65.50;;;;;;4994924;28;20490;-58
2023/07/15 09:02:24;;;;;;;2.30;1.40;;;30.00;61.30;;;;;;4995520;28;20043;-58
2023/07/15 09:04:50;;;;;;;1.80;1.40;;;30.10;58.40;;;;;;4999482;28;20014;-58
2023/07/15 09:07:15;;;;;;;1.70;1.30;;;30.10;59.30;;;;;;4999148;28;20081;-59
2023/07/15 09:09:42;;;;;;;3.42;1.50;;;30.20;58.20;;;;;;4999336;28;20113;-58
2023/07/15 09:12:10;;;;;;;2.15;1.48;;;30.40;57.70;;;;;;5000211;28;20394;-58
2023/07/15 09:14:43;;;;;;;1.52;1.30;;;30.50;56.20;;;;;;4999281;28;20106;-57
2023/07/15 09:17:15;;;;;;;1.67;1.10;;;30.60;55.90;;;;;;5000001;28;20014;-59
2023/07/15 09:19:41;;;;;;;1.40;1.05;;;30.80;53.40;;;;;;4998127;28;20069;-58
2023/07/15 09:22:08;;;;;;;3.33;1.50;;;30.80;51.80;;;;;;5000013;28;20069;-56
2023/07/15 09:24:37;;;;;;;1.58;1.30;;;31.00;53.40;;;;;;4997955;28;20031;-58
2023/07/15 09:27:03;;;;;;;2.00;1.10;;;31.20;53.50;;;;;;4997756;28;20022;-58
2023/07/15 09:29:29;;;;;;;1.48;1.30;;;31.30;53.70;;;;;;5000657;28;20073;-57
2023/07/15 09:31:56;;;;;;;3.10;1.38;;;31.40;54.00;;;;;;5000831;28;20106;-58
2023/07/15 09:34:25;;;;;;;2.08;1.27;;;31.40;53.40;;;;;;4995830;28;20076;-58
2023/07/15 09:36:52;;;;;;;2.25;1.40;;;31.60;54.30;;;;;;4996835;28;20092;-57
2023/07/15 09:39:22;;;;;;;1.35;1.20;;;32.00;52.80;;;;;;4999193;28;20053;-57
2023/07/15 09:42:05;;;;;;;14.52;1.92;;;32.20;50.80;;;;;;4996053;28;20046;-58
2023/07/15 09:44:34;;;;;;;1.35;1.20;;;32.40;50.60;;;;;;5002896;28;20418;-59
2023/07/15 09:47:02;;;;;;;1.42;1.30;;;32.50;49.60;;;;;;4998038;28;20040;-59
2023/07/15 09:49:27;;;;;;;1.88;1.27;;;32.60;50.20;;;;;;5000250;28;20080;-58
2023/07/15 09:51:53;;;;;;;1.10;0.90;;;32.80;49.40;;;;;;4999689;28;20037;-58
2023/07/15 09:54:21;;;;;;;1.52;0.80;;;32.90;49.40;;;;;;4995617;28;20038;-58
2023/07/15 09:56:49;;;;;;;1.73;1.00;;;33.10;49.30;;;;;;4998303;28;20077;-56
2023/07/15 09:59:21;;;;;;;1.35;1.10;;;33.30;48.20;;;;;;4998904;28;20034;-59
2023/07/15 10:01:50;;;;;;;1.90;1.10;;;33.40;48.90;;;;;;4999348;28;20467;-57
2023/07/15 10:04:31;;;;;;;2.15;1.20;;;33.50;48.10;;;;;;5001641;28;20633;-58
2023/07/15 10:06:57;;;;;;;1.17;1.08;;;33.40;47.00;;;;;;5002968;28;20108;-58
2023/07/15 10:09:23;;;;;;;1.85;1.00;;;33.50;47.10;;;;;;5000070;28;20173;-57
2023/07/15 10:11:51;;;;;;;1.00;0.90;;;33.70;47.30;;;;;;4997519;28;20503;-57
2023/07/15 10:14:19;;;;;;;2.25;1.02;;;34.00;48.00;;;;;;4997537;28;20044;-57
2023/07/15 10:16:45;;;;;;;0.93;0.93;;;34.20;45.80;;;;;;4998357;28;20030;-57
2023/07/15 10:19:41;;;;;;;2.58;0.90;;;34.30;47.20;;;;;;4999476;28;20509;-58
2023/07/15 10:22:08;;;;;;;3.85;1.00;;;34.30;45.90;;;;;;5004405;28;20073;-58
2023/07/15 10:24:34;;;;;;;2.58;0.80;;;34.10;45.50;;;;;;4998783;28;20022;-58
2023/07/15 10:27:05;;;;;;;1.05;0.98;;;34.00;46.30;;;;;;4997526;28;20052;-55
2023/07/15 10:29:31;;;;;;;1.73;0.90;;;33.90;46.70;;;;;;5000476;28;20088;-56
2023/07/15 10:32:10;;;;;;;1.50;1.15;;;34.00;46.40;;;;;;5000133;28;20038;-55
2023/07/15 10:34:56;;;;;;;0.95;0.90;;;33.90;47.80;;;;;;4997688;28;20033;-56
2023/07/15 10:37:21;;;;;;;1.10;1.00;;;34.00;46.80;;;;;;4998294;28;20041;-56
2023/07/15 10:39:47;;;;;;;2.67;1.10;;;34.10;45.60;;;;;;5001203;28;20030;-57
2023/07/15 10:42:15;;;;;;;1.45;1.00;;;34.10;46.10;;;;;;4999182;28;20784;-55
2023/07/15 10:44:44;;;;;;;1.20;1.10;;;34.20;46.90;;;;;;4996925;28;20577;-55
2023/07/15 10:47:11;;;;;;;1.60;1.25;;;34.20;47.00;;;;;;4999346;28;20130;-55
2023/07/15 10:49:38;;;;;;;1.55;1.00;;;34.20;48.00;;;;;;4996437;28;20095;-57
2023/07/15 10:52:04;;;;;;;1.50;0.95;;;34.20;46.10;;;;;;4996029;28;20027;-56
2023/07/15 10:54:32;;;;;;;2.55;0.80;;;34.10;46.10;;;;;;4999150;28;20026;-57
2023/07/15 10:57:06;;;;;;;1.30;1.00;;;34.10;45.60;;;;;;4999068;28;20121;-57
2023/07/15 10:59:35;;;;;;;1.23;0.90;;;34.20;46.00;;;;;;4998313;28;20026;-58
2023/07/15 11:02:01;;;;;;;1.30;0.90;;;34.30;44.70;;;;;;5000005;28;20017;-57
2023/07/15 11:04:27;;;;;;;3.75;1.00;;;34.40;45.90;;;;;;4998728;28;20033;-57
2023/07/15 11:07:01;;;;;;;1.15;0.98;;;34.60;45.40;;;;;;4996612;28;20021;-58
2023/07/15 11:09:27;;;;;;;3.85;0.80;;;34.70;44.50;;;;;;4999410;28;20089;-57
2023/07/15 11:11:53;;;;;;;1.88;1.00;;;34.80;44.10;;;;;;4997908;28;20077;-57
2023/07/15 11:14:19;;;;;;;1.00;0.90;;;34.80;43.00;;;;;;4995552;28;20029;-57
2023/07/15 11:16:45;;;;;;;5.60;1.20;;;34.70;42.90;;;;;;4998282;28;20014;-57
2023/07/15 11:19:15;;;;;;;2.88;1.00;;;34.70;42.90;;;;;;4994778;28;20066;-57
2023/07/15 11:21:44;;;;;;;1.73;1.00;;;34.80;43.60;;;;;;4998758;28;20030;-57
2023/07/15 11:24:12;;;;;;;1.85;0.93;;;35.10;43.40;;;;;;4996066;28;21054;-57
2023/07/15 11:26:38;;;;;;;1.25;0.75;;;35.20;43.00;;;;;;4998293;28;20025;-57
2023/07/15 11:29:17;;;;;;;0.93;0.70;;;35.30;43.10;;;;;;4999273;28;20234;-56
2023/07/15 11:31:46;;;;;;;1.25;0.85;;;35.40;43.00;;;;;;4999386;28;20168;-58
2023/07/15 11:34:12;;;;;;;1.50;0.90;;;35.50;43.50;;;;;;4998584;28;20033;-58
2023/07/15 11:36:39;;;;;;;2.53;1.00;;;35.70;42.60;;;;;;5000221;28;20026;-56
2023/07/15 11:39:05;;;;;;;2.17;0.95;;;35.60;42.70;;;;;;4997804;28;20044;-56
2023/07/15 11:41:36;;;;;;;1.48;0.90;;;35.40;43.00;;;;;;4995407;28;20042;-58
2023/07/15 11:44:10;;;;;;;1.10;0.98;;;35.10;42.20;;;;;;4998325;28;20496;-57
2023/07/15 11:46:37;;;;;;;0.93;0.68;;;34.90;42.50;;;;;;4999498;28;20400;-57
2023/07/15 11:49:03;;;;;;;2.33;0.90;;;34.90;43.00;;;;;;4995259;28;20121;-58
2023/07/15 11:51:32;;;;;;;1.63;1.10;;;34.80;42.90;;;;;;4993871;28;20168;-60
2023/07/15 11:53:58;;;;;;;1.30;0.90;;;34.90;43.50;;;;;;4997264;28;20478;-58
2023/07/15 11:56:41;;;;;;;2.35;1.10;;;35.10;42.90;;;;;;4994165;28;20498;-58
2023/07/15 11:59:10;;;;;;;0.77;0.68;;;35.20;43.10;;;;;;4997483;28;20026;-57
2023/07/15 12:01:38;;;;;;;1.10;0.90;;;35.40;41.90;;;;;;4995399;28;20065;-57
2023/07/15 12:04:14;;;;;;;2.08;0.80;;;35.40;41.00;;;;;;4995259;28;20386;-57
2023/07/15 12:06:52;;;;;;;1.08;0.98;;;35.20;41.60;;;;;;4995909;28;20072;-57
2023/07/15 12:09:19;;;;;;;1.40;0.98;;;34.90;42.10;;;;;;4993703;28;20097;-56
2023/07/15 12:11:45;;;;;;;0.80;0.80;;;34.70;42.90;;;;;;4996770;28;20417;-57
2023/07/15 12:14:13;;;;;;;1.52;1.00;;;35.00;42.70;;;;;;4997449;28;20026;-56
2023/07/15 12:16:39;;;;;;;3.97;0.90;;;35.30;43.10;;;;;;4996215;28;20088;-58
2023/07/15 12:19:12;;;;;;;1.42;0.80;;;35.70;40.80;;;;;;4996465;28;20470;-57
2023/07/15 12:21:38;;;;;;;2.80;1.00;;;35.90;41.20;;;;;;4995951;28;20491;-57
2023/07/15 12:24:04;;;;;;;1.33;1.05;;;36.00;42.10;;;;;;4993543;28;20491;-57
2023/07/15 12:26:30;;;;;;;0.80;0.80;;;36.10;40.70;;;;;;4998383;28;20034;-55
2023/07/15 12:28:56;;;;;;;1.05;0.90;;;36.20;41.60;;;;;;4996325;28;20014;-57
2023/07/15 12:31:22;;;;;;;1.00;0.90;;;36.30;41.00;;;;;;4994695;28;20037;-56
2023/07/15 12:33:48;;;;;;;1.42;0.80;;;36.20;39.40;;;;;;4993306;28;20026;-57
2023/07/15 12:36:15;;;;;;;1.63;0.80;;;36.30;39.00;;;;;;4992159;28;20060;-57
2023/07/15 12:38:41;;;;;;;3.53;0.90;;;36.20;39.60;;;;;;4995466;28;20117;-57
2023/07/15 12:41:08;;;;;;;0.60;0.60;;;36.10;39.10;;;;;;4995283;28;20455;-58
2023/07/15 12:43:35;;;;;;;0.95;0.80;;;35.90;37.90;;;;;;4996994;28;20169;-58
2023/07/15 12:46:01;;;;;;;1.15;0.90;;;35.60;38.60;;;;;;4992367;28;20141;-57
2023/07/15 12:48:26;;;;;;;0.70;0.70;;;35.50;39.80;;;;;;4976051;28;20043;-57